WetterOnline ( https://www.wetteronline.at )

Wetter aktuell Cottbus

Aktuelles Wetter: Cottbus (70m)

6-stündlich | Neueste Meldungen
Ortszeit Temperatur Wetter
Di, 14.07. 14:00 27.2° C leicht bewölkt
Di, 14.07. 8:00 18.7° C leicht bewölkt
Di, 14.07. 2:00 12.3° C wolkenlos
Mo, 13.07. 20:00 23.5° C wolkenlos
Mo, 13.07. 14:00 21.9° C wolkig
Mo, 13.07. 8:00 14.9° C leicht bewölkt
Mo, 13.07. 2:00 8.6° C wolkenlos
So, 12.07. 20:00 20.0° C wolkenlos
Ortszeit Temperatur Wetter
Di, 14.07. 18:00 27.4° C leicht bewölkt
Di, 14.07. 17:50 27.4° C leicht bewölkt
Di, 14.07. 17:40 27.5° C fast wolkenlos
Di, 14.07. 17:30 27.4° C wolkenlos
Di, 14.07. 17:20 27.4° C wolkenlos
Di, 14.07. 17:10 27.7° C fast wolkenlos
Di, 14.07. 17:00 27.2° C leicht bewölkt
Di, 14.07. 16:30 27.1° C wolkenlos
Di, 14.07. 16:00 27.7° C wolkenlos
Di, 14.07. 15:30 27.9° C leicht bewölkt
Di, 14.07. 15:00 26.8° C leicht bewölkt
Ortszeit Relative Feuchte Sichtweite
Di, 14.07. 14:00 25% 65 km
Di, 14.07. 8:00 49% 65 km
Di, 14.07. 2:00 79% 60 km
Mo, 13.07. 20:00 33% 55 km
Mo, 13.07. 14:00 36% 60 km
Mo, 13.07. 8:00 61% >70 km
Mo, 13.07. 2:00 86% 55 km
So, 12.07. 20:00 35% >70 km
Ortszeit Relative Feuchte Sichtweite
Di, 14.07. 18:00 26% 60 km
Di, 14.07. 17:50 26% -
Di, 14.07. 17:40 25% -
Di, 14.07. 17:30 25% >70 km
Di, 14.07. 17:20 25% -
Di, 14.07. 17:10 25% -
Di, 14.07. 17:00 25% >70 km
Di, 14.07. 16:30 24% 60 km
Di, 14.07. 16:00 26% 55 km
Di, 14.07. 15:30 24% 45 km
Di, 14.07. 15:00 26% 65 km
Ortszeit Niederschlagsmenge Niederschlagsart
Di, 14.07. 14:00 0.1 l/m2 in 6 Std. Sprühregen
Di, 14.07. 8:00 0.0 l/m2 in 12 Std. -
Di, 14.07. 2:00 0.0 l/m2 in 6 Std. -
Mo, 13.07. 20:00 0.0 l/m2 in 12 Std. -
Mo, 13.07. 14:00 0.0 l/m2 in 6 Std. -
Mo, 13.07. 8:00 0.1 l/m2 in 12 Std. -
Mo, 13.07. 2:00 0.0 l/m2 in 6 Std. -
So, 12.07. 20:00 0.1 l/m2 in 12 Std. Sprühregen
Ortszeit Niederschlagsmenge Niederschlagsart
Di, 14.07. 18:00 0.0 l/m2 in 1 Std. -
Di, 14.07. 17:50 keine Meldung -
Di, 14.07. 17:40 keine Meldung -
Di, 14.07. 17:30 0.0 l/m2 in 1 Std. -
Di, 14.07. 17:20 keine Meldung -
Di, 14.07. 17:10 keine Meldung -
Di, 14.07. 17:00 0.0 l/m2 in 1 Std. Niederschlag
Di, 14.07. 16:30 0.0 l/m2 in 1 Std. -
Di, 14.07. 16:00 0.1 l/m2 in 1 Std. Niederschlag
Di, 14.07. 15:30 0.1 l/m2 in 1 Std. Regen
Di, 14.07. 15:00 0.1 l/m2 in 1 Std. Sprühregen
Ortszeit Stärke Spitze Richtung
km/h Bft. km/h Grad Sektor
Di, 14.07. 14:00 7 2 25 130° SO
Di, 14.07. 8:00 9 2 20 190° S
Di, 14.07. 2:00 4 1 11 130° SO
Mo, 13.07. 20:00 6 1 22 30° NO
Mo, 13.07. 14:00 4 1 18 300° NW
Mo, 13.07. 8:00 2 1 7 130° SO
Mo, 13.07. 2:00 4 1 14 250° W
So, 12.07. 20:00 7 2 31 300° NW
Ortszeit Stärke Spitze Richtung
km/h Bft. km/h Grad Sektor
Di, 14.07. 18:00 9 2 22 130° SO
Di, 14.07. 17:50 9 2 - 130° SO
Di, 14.07. 17:40 9 2 - 140° SO
Di, 14.07. 17:30 11 2 22 130° SO
Di, 14.07. 17:20 11 2 - 130° SO
Di, 14.07. 17:10 9 2 - 130° SO
Di, 14.07. 17:00 6 1 20 120° SO
Di, 14.07. 16:30 9 2 20 160° S
Di, 14.07. 16:00 9 2 22 150° SO
Di, 14.07. 15:30 9 2 19 190° S
Di, 14.07. 15:00 7 2 25 120° SO
Ortszeit Untergrenze Bedeckung Gattung
total tief tief mittel hoch
Di, 14.07. 14:00 10500 m 3/8 0/8 - - -
Di, 14.07. 8:00 10500 m 8/8 0/8 - - -
Di, 14.07. 2:00 - 0/8 0/8 - - -
Mo, 13.07. 20:00 - 0/8 0/8 - - -
Mo, 13.07. 14:00 1800 m 6/8 3/8 - - -
Mo, 13.07. 8:00 9000 m 8/8 0/8 - - -
Mo, 13.07. 2:00 - 0/8 0/8 - - -
So, 12.07. 20:00 2400 m 0/8 0/8 - - -
Ortszeit Bedeckungsgrad in Achtel und Wolkenuntergrenze
Di, 14.07. 18:00 1(3300m) 5(7800m)
Di, 14.07. 17:50 1(3300m) 5(7800m)
Di, 14.07. 17:40 2(7800m)
Di, 14.07. 17:30 keine Wolken
Di, 14.07. 17:20 keine Wolken
Di, 14.07. 17:10 1(2700m)
Di, 14.07. 17:00 3(2700m)
Di, 14.07. 16:30 1(2700m)
Di, 14.07. 16:00 keine Wolken
Di, 14.07. 15:30 2(2400m)
Di, 14.07. 15:00 2(2400m)
Ortszeit Luftdruck NN (hPa) Tendenz (hPa in 3 Std.)
Di, 14.07. 14:00 1014 - 1,9
Di, 14.07. 8:00 1017 - 0,6
Di, 14.07. 2:00 1019 - 0,7
Mo, 13.07. 20:00 1019 - 1,6
Mo, 13.07. 14:00 1023 - 1,6
Mo, 13.07. 8:00 1026 - 0,1
Mo, 13.07. 2:00 1027 + 0,1
So, 12.07. 20:00 1025 - 0,4
Ortszeit Luftdruck NN (hPa) Tendenz (hPa in 3 Std.)
Di, 14.07. 18:00 1012 - 1,7
Di, 14.07. 17:50 1012 keine Meldung
Di, 14.07. 17:40 1012 keine Meldung
Di, 14.07. 17:30 1012 - 1,8
Di, 14.07. 17:20 1012 keine Meldung
Di, 14.07. 17:10 1012 keine Meldung
Di, 14.07. 17:00 1012 - 1,7
Di, 14.07. 16:30 1013 - 1,8
Di, 14.07. 16:00 1013 - 2,0
Di, 14.07. 15:30 1013 - 1,9
Di, 14.07. 15:00 1013 - 1,9
Ortszeit Schneehöhe (cm)
Di, 14.07. 14:00 -
Di, 14.07. 8:00 -
Di, 14.07. 2:00 -
Mo, 13.07. 20:00 -
Mo, 13.07. 14:00 -
Mo, 13.07. 8:00 -
Mo, 13.07. 2:00 -
So, 12.07. 20:00 -
Ortszeit Schneehöhe (cm)
Di, 14.07. 18:00 -
Di, 14.07. 17:50 -
Di, 14.07. 17:40 -
Di, 14.07. 17:30 -
Di, 14.07. 17:20 -
Di, 14.07. 17:10 -
Di, 14.07. 17:00 -
Di, 14.07. 16:30 -
Di, 14.07. 16:00 -
Di, 14.07. 15:30 -
Di, 14.07. 15:00 -
Link zu dieser Seite / Seite empfehlen

Das Wetter in ...